X  Cerrar Datos meteorológicos de aviación METAR     EHKD De Kooy Airport
Temperatura
6°C Temperatura
4°C Punto de rocío
87% Humedad



Viento
3 KM/H
2 MPH
1 M/S
2 NUDO



Calma
N
Condiciones actuales

Mayormente nublado Mayormente nublado
Presión 998.98 (hPa) - 29.5 (inHg)
Visibilidad 6 (milla) - 9.7 (km)
Aeropuerto
Código de aeropuerto EHKD

localidad: De Kooy Airport
Distancia: 34 (km)

Metar:
EHKD 250841Z AUTO VRB02KT 9999 BKN006 OVC007 06/04 Q0999 YLO TEMPO SCT007 BKN012

Hora: 25-02-2024 09:41 CET